sensor_id;sensor_type;location;lat;lon;timestamp;pressure;altitude;pressure_sealevel;temperature
64916;BMP280;51427;-27.442;153.014;2023-08-08T00:01:15;102835.06;;;19.38
64916;BMP280;51427;-27.442;153.014;2023-08-08T00:03:43;102843.06;;;19.12
64916;BMP280;51427;-27.442;153.014;2023-08-08T00:06:10;102847.16;;;19.15
64916;BMP280;51427;-27.442;153.014;2023-08-08T00:08:38;102841.53;;;19.45
64916;BMP280;51427;-27.442;153.014;2023-08-08T00:11:06;102836.50;;;19.97
64916;BMP280;51427;-27.442;153.014;2023-08-08T00:13:33;102827.84;;;20.01
64916;BMP280;51427;-27.442;153.014;2023-08-08T00:16:01;102831.41;;;19.97
64916;BMP280;51427;-27.442;153.014;2023-08-08T00:18:29;102825.44;;;19.98
64916;BMP280;51427;-27.442;153.014;2023-08-08T00:20:57;102821.41;;;20.28
64916;BMP280;51427;-27.442;153.014;2023-08-08T00:23:24;102818.50;;;20.18
64916;BMP280;51427;-27.442;153.014;2023-08-08T00:25:52;102814.88;;;20.39
64916;BMP280;51427;-27.442;153.014;2023-08-08T00:28:19;102810.78;;;20.69
64916;BMP280;51427;-27.442;153.014;2023-08-08T00:30:47;102814.59;;;20.77
64916;BMP280;51427;-27.442;153.014;2023-08-08T00:33:15;102808.59;;;20.78
64916;BMP280;51427;-27.442;153.014;2023-08-08T00:35:43;102810.94;;;20.98
64916;BMP280;51427;-27.442;153.014;2023-08-08T00:38:12;102802.69;;;21.39
64916;BMP280;51427;-27.442;153.014;2023-08-08T00:40:40;102803.47;;;21.26
64916;BMP280;51427;-27.442;153.014;2023-08-08T00:43:07;102791.75;;;21.68
64916;BMP280;51427;-27.442;153.014;2023-08-08T00:45:35;102786.38;;;21.58
64916;BMP280;51427;-27.442;153.014;2023-08-08T00:48:03;102771.06;;;21.43
64916;BMP280;51427;-27.442;153.014;2023-08-08T00:50:31;102775.59;;;21.53
64916;BMP280;51427;-27.442;153.014;2023-08-08T00:52:59;102770.16;;;21.59
64916;BMP280;51427;-27.442;153.014;2023-08-08T00:55:27;102769.34;;;21.88
64916;BMP280;51427;-27.442;153.014;2023-08-08T00:57:54;102768.47;;;21.44
64916;BMP280;51427;-27.442;153.014;2023-08-08T01:00:22;102752.78;;;21.21
64916;BMP280;51427;-27.442;153.014;2023-08-08T01:02:50;102755.63;;;21.61
64916;BMP280;51427;-27.442;153.014;2023-08-08T01:05:18;102755.56;;;21.77
64916;BMP280;51427;-27.442;153.014;2023-08-08T01:07:59;102759.69;;;20.89
64916;BMP280;51427;-27.442;153.014;2023-08-08T01:10:41;102741.41;;;21.27
64916;BMP280;51427;-27.442;153.014;2023-08-08T01:13:22;102749.66;;;20.86
64916;BMP280;51427;-27.442;153.014;2023-08-08T01:15:51;102743.63;;;21.77
64916;BMP280;51427;-27.442;153.014;2023-08-08T01:18:21;102737.81;;;21.31
64916;BMP280;51427;-27.442;153.014;2023-08-08T01:20:51;102733.03;;;21.55
64916;BMP280;51427;-27.442;153.014;2023-08-08T01:25:52;102720.75;;;21.62
64916;BMP280;51427;-27.442;153.014;2023-08-08T01:28:24;102717.03;;;21.67
64916;BMP280;51427;-27.442;153.014;2023-08-08T01:30:52;102709.78;;;21.75
64916;BMP280;51427;-27.442;153.014;2023-08-08T01:33:20;102708.66;;;21.65
64916;BMP280;51427;-27.442;153.014;2023-08-08T01:35:54;102708.00;;;22.05
64916;BMP280;51427;-27.442;153.014;2023-08-08T01:38:43;102696.22;;;21.88
64916;BMP280;51427;-27.442;153.014;2023-08-08T01:41:11;102693.94;;;21.84
64916;BMP280;51427;-27.442;153.014;2023-08-08T01:43:41;102682.50;;;22.05
64916;BMP280;51427;-27.442;153.014;2023-08-08T01:46:09;102689.88;;;21.52
64916;BMP280;51427;-27.442;153.014;2023-08-08T01:48:36;102680.84;;;21.90
64916;BMP280;51427;-27.442;153.014;2023-08-08T01:51:04;102672.00;;;21.95
64916;BMP280;51427;-27.442;153.014;2023-08-08T01:53:32;102664.38;;;22.09
64916;BMP280;51427;-27.442;153.014;2023-08-08T01:55:59;102656.16;;;22.04
64916;BMP280;51427;-27.442;153.014;2023-08-08T01:58:27;102663.63;;;21.66
64916;BMP280;51427;-27.442;153.014;2023-08-08T02:00:54;102651.50;;;21.69
64916;BMP280;51427;-27.442;153.014;2023-08-08T02:03:22;102652.34;;;21.83
64916;BMP280;51427;-27.442;153.014;2023-08-08T02:05:49;102640.69;;;21.80
64916;BMP280;51427;-27.442;153.014;2023-08-08T02:08:17;102637.44;;;21.48
64916;BMP280;51427;-27.442;153.014;2023-08-08T02:10:45;102639.13;;;22.05
64916;BMP280;51427;-27.442;153.014;2023-08-08T02:13:12;102630.47;;;22.07
64916;BMP280;51427;-27.442;153.014;2023-08-08T02:15:40;102627.94;;;21.66
64916;BMP280;51427;-27.442;153.014;2023-08-08T02:18:07;102633.03;;;21.66
64916;BMP280;51427;-27.442;153.014;2023-08-08T02:24:01;102608.44;;;22.06
64916;BMP280;51427;-27.442;153.014;2023-08-08T02:26:29;102603.53;;;22.03
64916;BMP280;51427;-27.442;153.014;2023-08-08T02:28:57;102601.16;;;21.86
64916;BMP280;51427;-27.442;153.014;2023-08-08T02:31:24;102597.34;;;21.23
64916;BMP280;51427;-27.442;153.014;2023-08-08T02:33:52;102596.16;;;21.28
64916;BMP280;51427;-27.442;153.014;2023-08-08T02:36:21;102589.78;;;22.20
64916;BMP280;51427;-27.442;153.014;2023-08-08T02:38:49;102587.31;;;22.58
64916;BMP280;51427;-27.442;153.014;2023-08-08T02:41:20;102568.50;;;23.36
64916;BMP280;51427;-27.442;153.014;2023-08-08T02:43:48;102566.84;;;22.98
64916;BMP280;51427;-27.442;153.014;2023-08-08T02:46:15;102569.53;;;22.17
64916;BMP280;51427;-27.442;153.014;2023-08-08T02:48:43;102560.91;;;22.05
64916;BMP280;51427;-27.442;153.014;2023-08-08T02:51:10;102553.28;;;22.84
64916;BMP280;51427;-27.442;153.014;2023-08-08T02:53:38;102555.31;;;23.18
64916;BMP280;51427;-27.442;153.014;2023-08-08T02:56:05;102559.56;;;21.44
64916;BMP280;51427;-27.442;153.014;2023-08-08T02:58:33;102550.84;;;21.62
64916;BMP280;51427;-27.442;153.014;2023-08-08T03:01:01;102547.41;;;22.17
64916;BMP280;51427;-27.442;153.014;2023-08-08T03:03:28;102547.03;;;21.69
64916;BMP280;51427;-27.442;153.014;2023-08-08T03:05:56;102544.81;;;22.05
64916;BMP280;51427;-27.442;153.014;2023-08-08T03:08:23;102538.78;;;21.92
64916;BMP280;51427;-27.442;153.014;2023-08-08T03:10:51;102542.91;;;21.67
64916;BMP280;51427;-27.442;153.014;2023-08-08T03:13:19;102538.25;;;22.01
64916;BMP280;51427;-27.442;153.014;2023-08-08T03:15:46;102544.19;;;22.01
64916;BMP280;51427;-27.442;153.014;2023-08-08T03:18:14;102538.06;;;21.35
64916;BMP280;51427;-27.442;153.014;2023-08-08T03:20:41;102531.63;;;21.71
64916;BMP280;51427;-27.442;153.014;2023-08-08T03:23:09;102525.53;;;21.73
64916;BMP280;51427;-27.442;153.014;2023-08-08T03:25:37;102522.44;;;21.68
64916;BMP280;51427;-27.442;153.014;2023-08-08T03:28:04;102528.06;;;21.32
64916;BMP280;51427;-27.442;153.014;2023-08-08T03:30:32;102519.97;;;21.53
64916;BMP280;51427;-27.442;153.014;2023-08-08T03:32:59;102525.25;;;21.50
64916;BMP280;51427;-27.442;153.014;2023-08-08T03:35:27;102517.88;;;21.73
64916;BMP280;51427;-27.442;153.014;2023-08-08T03:37:55;102511.72;;;21.63
64916;BMP280;51427;-27.442;153.014;2023-08-08T03:40:22;102518.84;;;22.12
64916;BMP280;51427;-27.442;153.014;2023-08-08T03:42:50;102511.56;;;22.06
64916;BMP280;51427;-27.442;153.014;2023-08-08T03:45:17;102500.94;;;22.52
64916;BMP280;51427;-27.442;153.014;2023-08-08T03:47:45;102497.31;;;22.81
64916;BMP280;51427;-27.442;153.014;2023-08-08T03:50:12;102495.88;;;22.77
64916;BMP280;51427;-27.442;153.014;2023-08-08T03:52:40;102496.53;;;22.42
64916;BMP280;51427;-27.442;153.014;2023-08-08T03:55:08;102493.88;;;21.63
64916;BMP280;51427;-27.442;153.014;2023-08-08T03:57:35;102503.81;;;22.08
64916;BMP280;51427;-27.442;153.014;2023-08-08T04:00:04;102499.88;;;22.81
64916;BMP280;51427;-27.442;153.014;2023-08-08T04:02:33;102486.16;;;22.70
64916;BMP280;51427;-27.442;153.014;2023-08-08T04:05:01;102495.28;;;21.81
64916;BMP280;51427;-27.442;153.014;2023-08-08T04:07:29;102487.63;;;21.95
64916;BMP280;51427;-27.442;153.014;2023-08-08T04:09:56;102489.00;;;21.86
64916;BMP280;51427;-27.442;153.014;2023-08-08T04:12:24;102501.22;;;21.40
64916;BMP280;51427;-27.442;153.014;2023-08-08T04:14:51;102491.69;;;21.57
64916;BMP280;51427;-27.442;153.014;2023-08-08T04:17:19;102482.03;;;21.35
64916;BMP280;51427;-27.442;153.014;2023-08-08T04:19:47;102487.94;;;20.78
64916;BMP280;51427;-27.442;153.014;2023-08-08T04:22:14;102489.78;;;20.76
64916;BMP280;51427;-27.442;153.014;2023-08-08T04:24:42;102489.78;;;20.61
64916;BMP280;51427;-27.442;153.014;2023-08-08T04:27:10;102495.19;;;20.55
64916;BMP280;51427;-27.442;153.014;2023-08-08T04:29:37;102487.13;;;20.78
64916;BMP280;51427;-27.442;153.014;2023-08-08T04:32:05;102489.94;;;20.73
64916;BMP280;51427;-27.442;153.014;2023-08-08T04:34:33;102489.44;;;20.82
64916;BMP280;51427;-27.442;153.014;2023-08-08T04:37:01;102495.75;;;20.75
64916;BMP280;51427;-27.442;153.014;2023-08-08T04:39:28;102495.06;;;20.42
64916;BMP280;51427;-27.442;153.014;2023-08-08T04:45:21;102497.38;;;20.32
64916;BMP280;51427;-27.442;153.014;2023-08-08T04:47:49;102498.63;;;20.25
64916;BMP280;51427;-27.442;153.014;2023-08-08T04:50:17;102502.91;;;20.09
64916;BMP280;51427;-27.442;153.014;2023-08-08T04:52:44;102502.31;;;20.19
64916;BMP280;51427;-27.442;153.014;2023-08-08T04:55:12;102500.38;;;20.24
64916;BMP280;51427;-27.442;153.014;2023-08-08T04:57:40;102502.16;;;20.22
64916;BMP280;51427;-27.442;153.014;2023-08-08T05:00:07;102503.41;;;20.15
64916;BMP280;51427;-27.442;153.014;2023-08-08T05:02:35;102500.22;;;20.12
64916;BMP280;51427;-27.442;153.014;2023-08-08T05:05:05;102500.38;;;20.09
64916;BMP280;51427;-27.442;153.014;2023-08-08T05:07:33;102494.03;;;20.00
64916;BMP280;51427;-27.442;153.014;2023-08-08T05:13:24;102495.19;;;20.10
64916;BMP280;51427;-27.442;153.014;2023-08-08T05:15:52;102501.81;;;19.98
64916;BMP280;51427;-27.442;153.014;2023-08-08T05:18:19;102502.81;;;19.95
64916;BMP280;51427;-27.442;153.014;2023-08-08T05:20:47;102509.38;;;19.99
64916;BMP280;51427;-27.442;153.014;2023-08-08T05:23:14;102500.38;;;20.09
64916;BMP280;51427;-27.442;153.014;2023-08-08T05:25:42;102505.09;;;20.15
64916;BMP280;51427;-27.442;153.014;2023-08-08T05:28:10;102507.31;;;20.05
64916;BMP280;51427;-27.442;153.014;2023-08-08T05:30:37;102510.09;;;20.16
64916;BMP280;51427;-27.442;153.014;2023-08-08T05:33:05;102515.94;;;20.03
64916;BMP280;51427;-27.442;153.014;2023-08-08T05:35:33;102520.88;;;20.06
64916;BMP280;51427;-27.442;153.014;2023-08-08T05:38:00;102530.78;;;19.95
64916;BMP280;51427;-27.442;153.014;2023-08-08T05:40:28;102526.91;;;19.88
64916;BMP280;51427;-27.442;153.014;2023-08-08T05:42:56;102527.19;;;19.82
64916;BMP280;51427;-27.442;153.014;2023-08-08T05:45:23;102530.50;;;19.84
64916;BMP280;51427;-27.442;153.014;2023-08-08T05:47:51;102522.09;;;19.82
64916;BMP280;51427;-27.442;153.014;2023-08-08T05:50:19;102519.66;;;19.81
64916;BMP280;51427;-27.442;153.014;2023-08-08T05:52:46;102544.38;;;19.77
64916;BMP280;51427;-27.442;153.014;2023-08-08T05:55:14;102531.03;;;19.74
64916;BMP280;51427;-27.442;153.014;2023-08-08T05:57:41;102535.31;;;19.73
64916;BMP280;51427;-27.442;153.014;2023-08-08T06:00:10;102544.38;;;19.77
64916;BMP280;51427;-27.442;153.014;2023-08-08T06:02:38;102537.34;;;19.82
64916;BMP280;51427;-27.442;153.014;2023-08-08T06:05:06;102539.16;;;19.80
64916;BMP280;51427;-27.442;153.014;2023-08-08T06:07:34;102545.88;;;19.81
64916;BMP280;51427;-27.442;153.014;2023-08-08T06:10:02;102549.16;;;19.83
64916;BMP280;51427;-27.442;153.014;2023-08-08T06:12:29;102544.97;;;19.82
64916;BMP280;51427;-27.442;153.014;2023-08-08T06:14:57;102544.38;;;19.77
64916;BMP280;51427;-27.442;153.014;2023-08-08T06:17:24;102547.38;;;19.85
64916;BMP280;51427;-27.442;153.014;2023-08-08T06:19:52;102551.44;;;19.72
64916;BMP280;51427;-27.442;153.014;2023-08-08T06:22:21;102549.56;;;19.76
64916;BMP280;51427;-27.442;153.014;2023-08-08T06:24:48;102557.50;;;19.70
64916;BMP280;51427;-27.442;153.014;2023-08-08T06:27:16;102553.41;;;19.67
64916;BMP280;51427;-27.442;153.014;2023-08-08T06:29:44;102556.00;;;19.66
64916;BMP280;51427;-27.442;153.014;2023-08-08T06:32:11;102560.75;;;19.56
64916;BMP280;51427;-27.442;153.014;2023-08-08T06:34:39;102563.34;;;19.55
64916;BMP280;51427;-27.442;153.014;2023-08-08T06:37:07;102561.72;;;19.54
64916;BMP280;51427;-27.442;153.014;2023-08-08T06:39:35;102555.81;;;19.53
64916;BMP280;51427;-27.442;153.014;2023-08-08T06:42:04;102570.63;;;19.46
64916;BMP280;51427;-27.442;153.014;2023-08-08T06:44:42;102566.59;;;19.42
64916;BMP280;51427;-27.442;153.014;2023-08-08T06:47:10;102576.66;;;19.43
64916;BMP280;51427;-27.442;153.014;2023-08-08T06:49:38;102578.69;;;19.37
64916;BMP280;51427;-27.442;153.014;2023-08-08T06:52:06;102577.06;;;19.36
64916;BMP280;51427;-27.442;153.014;2023-08-08T06:54:33;102579.69;;;19.34
64916;BMP280;51427;-27.442;153.014;2023-08-08T06:57:01;102582.44;;;19.30
64916;BMP280;51427;-27.442;153.014;2023-08-08T06:59:28;102583.69;;;19.21
64916;BMP280;51427;-27.442;153.014;2023-08-08T07:01:55;102577.81;;;19.21
64916;BMP280;51427;-27.442;153.014;2023-08-08T07:04:23;102579.59;;;19.19
64916;BMP280;51427;-27.442;153.014;2023-08-08T07:06:50;102578.09;;;19.15
64916;BMP280;51427;-27.442;153.014;2023-08-08T07:09:17;102592.44;;;19.16
64916;BMP280;51427;-27.442;153.014;2023-08-08T07:11:44;102584.81;;;19.16
64916;BMP280;51427;-27.442;153.014;2023-08-08T07:14:12;102585.94;;;19.10
64916;BMP280;51427;-27.442;153.014;2023-08-08T07:16:39;102582.81;;;19.06
64916;BMP280;51427;-27.442;153.014;2023-08-08T07:19:06;102590.47;;;19.04
64916;BMP280;51427;-27.442;153.014;2023-08-08T07:21:34;102596.41;;;19.05
64916;BMP280;51427;-27.442;153.014;2023-08-08T07:24:01;102602.53;;;18.99
64916;BMP280;51427;-27.442;153.014;2023-08-08T07:26:29;102595.81;;;18.98
64916;BMP280;51427;-27.442;153.014;2023-08-08T07:28:56;102607.63;;;18.99
64916;BMP280;51427;-27.442;153.014;2023-08-08T07:31:23;102600.44;;;18.90
64916;BMP280;51427;-27.442;153.014;2023-08-08T07:33:51;102607.38;;;18.87
64916;BMP280;51427;-27.442;153.014;2023-08-08T07:36:18;102604.09;;;18.85
64916;BMP280;51427;-27.442;153.014;2023-08-08T07:38:45;102600.66;;;18.86
64916;BMP280;51427;-27.442;153.014;2023-08-08T07:41:12;102610.13;;;18.82
64916;BMP280;51427;-27.442;153.014;2023-08-08T07:43:39;102607.94;;;18.75
64916;BMP280;51427;-27.442;153.014;2023-08-08T07:46:07;102612.81;;;18.79
64916;BMP280;51427;-27.442;153.014;2023-08-08T07:48:34;102615.53;;;18.75
64916;BMP280;51427;-27.442;153.014;2023-08-08T07:51:01;102615.63;;;18.73
64916;BMP280;51427;-27.442;153.014;2023-08-08T07:53:29;102622.75;;;18.65
64916;BMP280;51427;-27.442;153.014;2023-08-08T07:55:56;102631.16;;;18.67
64916;BMP280;51427;-27.442;153.014;2023-08-08T07:58:23;102633.69;;;18.67
64916;BMP280;51427;-27.442;153.014;2023-08-08T08:00:56;102633.75;;;18.66
64916;BMP280;51427;-27.442;153.014;2023-08-08T08:03:23;102635.66;;;18.61
64916;BMP280;51427;-27.442;153.014;2023-08-08T08:05:50;102629.50;;;18.66
64916;BMP280;51427;-27.442;153.014;2023-08-08T08:08:18;102634.84;;;18.60
64916;BMP280;51427;-27.442;153.014;2023-08-08T08:10:45;102636.56;;;18.60
64916;BMP280;51427;-27.442;153.014;2023-08-08T08:13:14;102643.34;;;18.60
64916;BMP280;51427;-27.442;153.014;2023-08-08T08:15:42;102641.09;;;18.54
64916;BMP280;51427;-27.442;153.014;2023-08-08T08:18:10;102639.16;;;18.59
64916;BMP280;51427;-27.442;153.014;2023-08-08T08:20:39;102648.91;;;18.49
64916;BMP280;51427;-27.442;153.014;2023-08-08T08:23:06;102651.31;;;18.52
64916;BMP280;51427;-27.442;153.014;2023-08-08T08:25:34;102655.53;;;18.52
64916;BMP280;51427;-27.442;153.014;2023-08-08T08:28:01;102664.19;;;18.48
64916;BMP280;51427;-27.442;153.014;2023-08-08T08:30:29;102657.31;;;18.50
64916;BMP280;51427;-27.442;153.014;2023-08-08T08:32:57;102664.13;;;18.49
64916;BMP280;51427;-27.442;153.014;2023-08-08T08:35:24;102670.81;;;18.50
64916;BMP280;51427;-27.442;153.014;2023-08-08T08:37:52;102671.84;;;18.46
64916;BMP280;51427;-27.442;153.014;2023-08-08T08:40:19;102667.84;;;18.41
64916;BMP280;51427;-27.442;153.014;2023-08-08T08:42:48;102679.53;;;18.45
64916;BMP280;51427;-27.442;153.014;2023-08-08T08:45:17;102681.78;;;18.51
64916;BMP280;51427;-27.442;153.014;2023-08-08T08:47:47;102684.19;;;18.54
64916;BMP280;51427;-27.442;153.014;2023-08-08T08:50:18;102695.84;;;18.58
64916;BMP280;51427;-27.442;153.014;2023-08-08T08:52:46;102698.22;;;18.60
64916;BMP280;51427;-27.442;153.014;2023-08-08T08:55:14;102701.22;;;18.50
64916;BMP280;51427;-27.442;153.014;2023-08-08T08:57:42;102700.28;;;18.53
64916;BMP280;51427;-27.442;153.014;2023-08-08T09:00:11;102710.63;;;18.48
64916;BMP280;51427;-27.442;153.014;2023-08-08T09:02:39;102712.41;;;18.46
64916;BMP280;51427;-27.442;153.014;2023-08-08T09:05:07;102710.91;;;18.42
64916;BMP280;51427;-27.442;153.014;2023-08-08T09:08:09;102710.63;;;18.48
64916;BMP280;51427;-27.442;153.014;2023-08-08T09:10:38;102715.84;;;18.45
64916;BMP280;51427;-27.442;153.014;2023-08-08T09:13:06;102719.97;;;18.48
64916;BMP280;51427;-27.442;153.014;2023-08-08T09:15:34;102722.81;;;18.40
64916;BMP280;51427;-27.442;153.014;2023-08-08T09:18:02;102732.28;;;18.37
64916;BMP280;51427;-27.442;153.014;2023-08-08T09:20:30;102730.44;;;18.40
64916;BMP280;51427;-27.442;153.014;2023-08-08T09:22:57;102737.34;;;18.37
64916;BMP280;51427;-27.442;153.014;2023-08-08T09:25:26;102738.28;;;18.34
64916;BMP280;51427;-27.442;153.014;2023-08-08T09:27:54;102729.50;;;18.23
64916;BMP280;51427;-27.442;153.014;2023-08-08T09:30:22;102726.91;;;18.24
64916;BMP280;51427;-27.442;153.014;2023-08-08T09:32:50;102738.97;;;18.19
64916;BMP280;51427;-27.442;153.014;2023-08-08T09:35:18;102734.44;;;18.26
64916;BMP280;51427;-27.442;153.014;2023-08-08T09:37:47;102748.91;;;18.24
64916;BMP280;51427;-27.442;153.014;2023-08-08T09:40:15;102741.50;;;18.19
64916;BMP280;51427;-27.442;153.014;2023-08-08T09:42:44;102750.09;;;18.15
64916;BMP280;51427;-27.442;153.014;2023-08-08T09:45:16;102755.22;;;18.14
64916;BMP280;51427;-27.442;153.014;2023-08-08T09:47:43;102756.13;;;18.13
64916;BMP280;51427;-27.442;153.014;2023-08-08T09:50:11;102759.69;;;18.08
64916;BMP280;51427;-27.442;153.014;2023-08-08T09:52:40;102759.63;;;18.09
64916;BMP280;51427;-27.442;153.014;2023-08-08T09:55:08;102762.28;;;18.06
64916;BMP280;51427;-27.442;153.014;2023-08-08T09:57:39;102759.75;;;18.06
64916;BMP280;51427;-27.442;153.014;2023-08-08T10:00:09;102768.34;;;18.04
64916;BMP280;51427;-27.442;153.014;2023-08-08T10:02:46;102750.59;;;18.04
64916;BMP280;51427;-27.442;153.014;2023-08-08T10:05:15;102759.88;;;18.03
64916;BMP280;51427;-27.442;153.014;2023-08-08T10:07:43;102761.41;;;18.07
64916;BMP280;51427;-27.442;153.014;2023-08-08T10:10:11;102770.81;;;18.05
64916;BMP280;51427;-27.442;153.014;2023-08-08T10:12:42;102768.13;;;17.88
64916;BMP280;51427;-27.442;153.014;2023-08-08T10:15:10;102769.50;;;17.95
64916;BMP280;51427;-27.442;153.014;2023-08-08T10:17:39;102768.00;;;17.91
64916;BMP280;51427;-27.442;153.014;2023-08-08T10:20:09;102774.19;;;17.84
64916;BMP280;51427;-27.442;153.014;2023-08-08T10:22:45;102768.13;;;17.88
64916;BMP280;51427;-27.442;153.014;2023-08-08T10:25:27;102767.50;;;17.83
64916;BMP280;51427;-27.442;153.014;2023-08-08T10:28:09;102767.09;;;17.72
64916;BMP280;51427;-27.442;153.014;2023-08-08T10:30:47;102767.56;;;17.61
64916;BMP280;51427;-27.442;153.014;2023-08-08T10:33:19;102767.69;;;17.79
64916;BMP280;51427;-27.442;153.014;2023-08-08T10:36:07;102772.34;;;17.68
64916;BMP280;51427;-27.442;153.014;2023-08-08T10:38:43;102765.31;;;17.74
64916;BMP280;51427;-27.442;153.014;2023-08-08T10:41:16;102773.84;;;17.72
64916;BMP280;51427;-27.442;153.014;2023-08-08T10:43:59;102772.53;;;17.64
64916;BMP280;51427;-27.442;153.014;2023-08-08T10:46:31;102771.22;;;17.54
64916;BMP280;51427;-27.442;153.014;2023-08-08T10:49:01;102772.13;;;17.53
64916;BMP280;51427;-27.442;153.014;2023-08-08T10:51:40;102776.66;;;17.45
64916;BMP280;51427;-27.442;153.014;2023-08-08T10:54:35;102770.03;;;17.41
64916;BMP280;51427;-27.442;153.014;2023-08-08T10:57:04;102774.66;;;17.53
64916;BMP280;51427;-27.442;153.014;2023-08-08T10:59:38;102784.31;;;17.43
64916;BMP280;51427;-27.442;153.014;2023-08-08T11:02:10;102782.06;;;17.36
64916;BMP280;51427;-27.442;153.014;2023-08-08T11:04:37;102787.75;;;17.41
64916;BMP280;51427;-27.442;153.014;2023-08-08T11:07:05;102781.03;;;17.40
64916;BMP280;51427;-27.442;153.014;2023-08-08T11:09:33;102781.53;;;17.28
64916;BMP280;51427;-27.442;153.014;2023-08-08T11:12:01;102787.91;;;17.15
64916;BMP280;51427;-27.442;153.014;2023-08-08T11:14:28;102776.22;;;17.11
64916;BMP280;51427;-27.442;153.014;2023-08-08T11:16:56;102781.28;;;17.11
64916;BMP280;51427;-27.442;153.014;2023-08-08T11:19:23;102779.84;;;17.06
64916;BMP280;51427;-27.442;153.014;2023-08-08T11:21:51;102779.75;;;17.07
64916;BMP280;51427;-27.442;153.014;2023-08-08T11:24:19;102777.00;;;17.13
64916;BMP280;51427;-27.442;153.014;2023-08-08T11:26:46;102780.97;;;16.97
64916;BMP280;51427;-27.442;153.014;2023-08-08T11:29:14;102790.00;;;16.81
64916;BMP280;51427;-27.442;153.014;2023-08-08T11:31:42;102783.63;;;16.94
64916;BMP280;51427;-27.442;153.014;2023-08-08T11:34:10;102785.81;;;16.80
64916;BMP280;51427;-27.442;153.014;2023-08-08T11:36:38;102789.34;;;16.77
64916;BMP280;51427;-27.442;153.014;2023-08-08T11:39:07;102794.34;;;16.78
64916;BMP280;51427;-27.442;153.014;2023-08-08T11:41:36;102783.56;;;16.73
64916;BMP280;51427;-27.442;153.014;2023-08-08T11:44:05;102788.56;;;16.75
64916;BMP280;51427;-27.442;153.014;2023-08-08T11:46:43;102785.16;;;16.76
64916;BMP280;51427;-27.442;153.014;2023-08-08T11:49:13;102784.59;;;16.68
64916;BMP280;51427;-27.442;153.014;2023-08-08T11:51:43;102784.88;;;16.60
64916;BMP280;51427;-27.442;153.014;2023-08-08T11:54:12;102782.38;;;16.59
64916;BMP280;51427;-27.442;153.014;2023-08-08T11:56:40;102783.50;;;16.52
64916;BMP280;51427;-27.442;153.014;2023-08-08T11:59:09;102775.34;;;16.44
64916;BMP280;51427;-27.442;153.014;2023-08-08T12:01:39;102771.94;;;16.45
64916;BMP280;51427;-27.442;153.014;2023-08-08T12:04:08;102769.44;;;16.43
64916;BMP280;51427;-27.442;153.014;2023-08-08T12:06:39;102771.97;;;16.43
64916;BMP280;51427;-27.442;153.014;2023-08-08T12:09:07;102767.50;;;16.27
64916;BMP280;51427;-27.442;153.014;2023-08-08T12:11:37;102773.44;;;16.26
64916;BMP280;51427;-27.442;153.014;2023-08-08T12:14:06;102774.69;;;16.39
64916;BMP280;51427;-27.442;153.014;2023-08-08T12:16:34;102782.03;;;16.21
64916;BMP280;51427;-27.442;153.014;2023-08-08T12:19:07;102774.31;;;16.25
64916;BMP280;51427;-27.442;153.014;2023-08-08T12:21:40;102777.28;;;16.12
64916;BMP280;51427;-27.442;153.014;2023-08-08T12:24:08;102779.78;;;16.12
64916;BMP280;51427;-27.442;153.014;2023-08-08T12:26:35;102772.69;;;15.97
64916;BMP280;51427;-27.442;153.014;2023-08-08T12:29:02;102778.41;;;16.03
64916;BMP280;51427;-27.442;153.014;2023-08-08T12:31:29;102771.44;;;15.84
64916;BMP280;51427;-27.442;153.014;2023-08-08T12:33:57;102778.97;;;15.85
64916;BMP280;51427;-27.442;153.014;2023-08-08T12:36:24;102773.94;;;15.85
64916;BMP280;51427;-27.442;153.014;2023-08-08T12:38:52;102778.63;;;15.70
64916;BMP280;51427;-27.442;153.014;2023-08-08T12:41:19;102776.66;;;15.80
64916;BMP280;51427;-27.442;153.014;2023-08-08T12:43:47;102780.19;;;15.74
64916;BMP280;51427;-27.442;153.014;2023-08-08T12:46:14;102773.13;;;15.58
64916;BMP280;51427;-27.442;153.014;2023-08-08T12:48:43;102772.28;;;15.59
64916;BMP280;51427;-27.442;153.014;2023-08-08T12:51:10;102774.81;;;15.59
64916;BMP280;51427;-27.442;153.014;2023-08-08T12:53:38;102767.41;;;15.53
64916;BMP280;51427;-27.442;153.014;2023-08-08T12:56:05;102765.66;;;15.55
64916;BMP280;51427;-27.442;153.014;2023-08-08T12:58:32;102768.50;;;15.46
64916;BMP280;51427;-27.442;153.014;2023-08-08T13:00:59;102774.47;;;15.42
64916;BMP280;51427;-27.442;153.014;2023-08-08T13:03:27;102757.13;;;15.59
64916;BMP280;51427;-27.442;153.014;2023-08-08T13:05:54;102760.28;;;15.40
64916;BMP280;51427;-27.442;153.014;2023-08-08T13:08:21;102767.34;;;15.29
64916;BMP280;51427;-27.442;153.014;2023-08-08T13:10:48;102763.94;;;15.30
64916;BMP280;51427;-27.442;153.014;2023-08-08T13:13:15;102763.16;;;15.28
64916;BMP280;51427;-27.442;153.014;2023-08-08T13:15:43;102756.13;;;15.37
64916;BMP280;51427;-27.442;153.014;2023-08-08T13:18:11;102755.19;;;15.41
64916;BMP280;51427;-27.442;153.014;2023-08-08T13:20:39;102761.63;;;15.22
64916;BMP280;51427;-27.442;153.014;2023-08-08T13:23:06;102767.66;;;15.18
64916;BMP280;51427;-27.442;153.014;2023-08-08T13:25:33;102761.84;;;15.15
64916;BMP280;51427;-27.442;153.014;2023-08-08T13:28:03;102765.78;;;15.25
64916;BMP280;51427;-27.442;153.014;2023-08-08T13:30:30;102764.06;;;15.25
64916;BMP280;51427;-27.442;153.014;2023-08-08T13:32:57;102757.78;;;15.09
64916;BMP280;51427;-27.442;153.014;2023-08-08T13:35:25;102760.94;;;15.16
64916;BMP280;51427;-27.442;153.014;2023-08-08T13:37:53;102755.09;;;15.17
64916;BMP280;51427;-27.442;153.014;2023-08-08T13:40:21;102757.47;;;15.21
64916;BMP280;51427;-27.442;153.014;2023-08-08T13:42:48;102754.91;;;15.23